Latest Weather Observations for Bairnsdale

IDV60801

Issued at 5:12 pm EST Tuesday 20 April 2021 (issued every 10 minutes, with the page automatically refreshed every 10 minutes)

About weather observations | Map of weather stations | Latest weather observations for VIC | Other Formats
Station Details ID: 085279 Name: BAIRNSDALE AIRPORT Lat: -37.88 Lon: 147.57 Height: 49.4 m
Data from the previous 72 hours. | See also: Recent months at Bairnsdale
Date/Time
EST
Temp
°C
App
Temp
°C
Dew
Point
°C
Rel
Hum
%
Delta-T
°C
Wind Press
QNH
hPa
Press
MSL
hPa
Rain since
9am
mm
Dir  Spd
km/h
Gust
km/h
Spd
kts
Gust
kts
20/05:00pm 10.1 7.0 9.0 93 0.5 W 15 20 8 11 1010.4 1010.3 2.4
20/04:30pm 10.7 5.2 9.1 90 0.8 SW 28 37 15 20 1009.7 1009.6 0.2
20/04:02pm 11.8 5.5 9.0 83 1.4 WSW 32 50 17 27 1009.4 1009.3 0.0
20/04:00pm 11.9 5.6 9.1 83 1.4 WSW 32 43 17 23 1009.6 1009.5 0.0
20/03:30pm 13.7 7.4 9.0 73 2.4 SW 32 50 17 27 1008.7 1008.6 0.0
20/03:00pm 14.6 9.2 11.0 79 1.9 SW 30 39 16 21 1008.3 1008.3 0.0
20/02:30pm 14.4 8.0 9.4 72 2.6 WSW 33 43 18 23 1008.0 1008.0 0.0
20/02:19pm 15.8 9.9 9.2 65 3.4 WSW 30 48 16 26 1007.8 1007.8 0.0
20/02:09pm 16.9 10.4 8.1 56 4.5 W 32 50 17 27 1007.7 1007.7 0.0
20/02:00pm 19.1 13.6 5.9 42 6.5 WNW 24 41 13 22 1007.5 1007.5 0.0
20/01:30pm 19.3 14.5 5.7 41 6.7 W 20 32 11 17 1007.5 1007.5 0.0
20/01:00pm 19.7 13.9 4.6 37 7.3 W 24 32 13 17 1007.7 1007.7 0.0
20/12:30pm 21.5 14.7 5.0 34 8.1 WNW 30 43 16 23 1007.9 1007.9 0.0
20/12:00pm 20.6 12.6 3.8 33 8.1 W 35 46 19 25 1008.5 1008.4 0.0
20/11:30am 20.7 15.1 5.5 37 7.5 WNW 24 35 13 19 1009.1 1009.0 0.0
20/11:00am 20.0 14.2 6.4 41 6.8 NW 26 37 14 20 1009.4 1009.3 0.0
20/10:30am 20.1 14.0 6.8 42 6.7 NNW 28 43 15 23 1009.6 1009.5 0.0
20/10:00am 19.5 14.7 7.3 45 6.2 NNW 22 30 12 16 1009.9 1009.8 0.0
20/09:30am 16.8 12.9 6.9 52 4.9 NW 17 26 9 14 1010.4 1010.3 0.0
20/09:00am 15.6 13.3 7.4 58 4.1 NNW 9 15 5 8 1010.7 1010.6 0.0
20/08:30am 13.3 10.8 6.6 64 3.2 NNE 9 17 5 9 1010.8 1010.7 0.0
20/08:00am 11.4 8.2 5.3 66 2.8 NNE 11 13 6 7 1010.8 1010.7 0.0
20/07:30am 10.4 7.5 4.8 68 2.5 NNE 9 13 5 7 1010.9 1010.8 0.0
20/07:00am 9.9 7.0 4.5 69 2.4 NNE 9 11 5 6 1010.9 1010.8 0.0
20/06:30am 9.9 6.5 4.1 67 2.6 NNE 11 13 6 7 1011.1 1011.0 0.0
20/06:00am 10.0 6.9 3.7 65 2.8 NNE 9 9 5 5 1011.1 1011.0 0.0
20/05:30am 10.7 7.2 3.7 62 3.1 NNE 11 13 6 7 1011.1 1011.0 0.0
20/05:00am 11.5 8.1 3.8 59 3.4 NNE 11 13 6 7 1011.3 1011.2 0.0
20/04:30am 12.0 9.0 4.2 59 3.5 NNE 9 11 5 6 1011.2 1011.1 0.0
20/04:00am 11.2 8.6 4.4 63 3.1 NNW 7 9 4 5 1011.5 1011.4 0.0
20/03:30am 11.4 8.5 4.4 62 3.2 NNW 9 11 5 6 1011.8 1011.7 0.0
20/03:00am 11.5 8.5 4.3 61 3.2 NW 9 13 5 7 1012.0 1011.9 0.0
20/02:30am 13.8 10.0 4.1 52 4.4 NNW 13 17 7 9 1012.1 1012.0 0.0
20/02:00am 13.9 10.2 4.5 53 4.3 NNW 13 17 7 9 1012.3 1012.2 0.0
20/01:30am 14.0 10.4 5.1 55 4.2 NNW 13 17 7 9 1012.7 1012.6 0.0
20/01:00am 13.8 10.7 5.7 58 3.8 NNW 11 15 6 8 1012.9 1012.8 0.0
20/12:30am 12.6 10.0 6.2 65 3.0 NNW 9 11 5 6 1013.0 1012.9 0.0
20/12:00am 11.6 9.6 7.3 75 2.1 NW 7 9 4 5 1013.4 1013.3 0.0
 
Date/Time
EST
Temp
°C
App
Temp
°C
Dew
Point
°C
Rel
Hum
%
Delta-T
°C
Wind Press
QNH
hPa
Press
MSL
hPa
Rain since
9am
mm
Dir  Spd
km/h
Gust
km/h
Spd
kts
Gust
kts
19/11:30pm 11.7 9.4 7.6 76 2.0 NNW 9 11 5 6 1013.6 1013.5 0.0
19/11:00pm 11.3 9.6 8.2 81 1.5 NNW 7 9 4 5 1013.8 1013.7 0.0
19/10:30pm 13.0 10.7 9.1 77 2.0 N 11 15 6 8 1014.0 1013.9 0.0
19/10:00pm 14.3 12.0 9.1 71 2.7 N 11 15 6 8 1014.3 1014.2 0.0
19/09:30pm 15.0 12.8 9.4 69 2.9 NNE 11 15 6 8 1014.4 1014.3 0.0
19/09:00pm 15.3 13.2 9.7 69 2.9 NNE 11 15 6 8 1014.5 1014.4 0.0
19/08:30pm 14.7 13.2 9.1 69 2.9 NNW 7 9 4 5 1014.7 1014.6 0.0
19/08:00pm 14.8 13.0 9.4 70 2.8 N 9 9 5 5 1014.8 1014.7 0.0
19/07:30pm 14.6 12.7 9.2 70 2.8 N 9 9 5 5 1014.8 1014.7 0.0
19/07:00pm 15.0 13.6 8.7 66 3.2 NNE 6 7 3 4 1014.7 1014.6 0.0
19/06:30pm 15.2 14.2 8.7 65 3.3 ESE 4 6 2 3 1014.6 1014.5 0.0
19/06:00pm 15.3 13.7 8.8 65 3.3 NNE 7 11 4 6 1014.3 1014.2 0.0
19/05:30pm 15.6 14.1 8.6 63 3.6 E 6 9 3 5 1014.1 1014.0 0.0
19/05:00pm 16.1 14.5 8.6 61 3.8 NE 7 11 4 6 1013.9 1013.8 0.0
19/04:30pm 18.1 15.7 6.9 48 5.6 WSW 9 17 5 9 1013.7 1013.6 0.0
19/04:00pm 18.9 16.8 8.3 50 5.5 SW 9 13 5 7 1013.5 1013.4 0.0
19/03:30pm 20.3 16.8 7.3 43 6.7 SW 15 19 8 10 1013.5 1013.4 0.0
19/03:00pm 20.6 17.3 7.9 44 6.6 W 15 24 8 13 1013.6 1013.5 0.0
19/02:30pm 20.4 16.7 8.1 45 6.4 W 17 24 9 13 1013.8 1013.7 0.0
19/02:00pm 20.1 16.1 8.4 47 6.1 WSW 19 24 10 13 1014.1 1014.0 0.0
19/01:30pm 19.8 16.7 8.8 49 5.8 W 15 22 8 12 1014.5 1014.4 0.0
19/01:00pm 19.6 15.5 8.6 49 5.7 WSW 20 26 11 14 1014.9 1014.8 0.0
19/12:30pm 19.4 16.0 9.0 51 5.5 SW 17 22 9 12 1015.4 1015.3 0.0
19/12:00pm 17.9 14.4 8.7 55 4.8 SW 17 22 9 12 1016.0 1015.9 0.0
19/11:30am 19.6 16.0 8.3 48 5.9 NW 17 26 9 14 1016.3 1016.3 0.0
19/11:00am 18.6 14.9 8.0 50 5.4 WNW 17 24 9 13 1016.8 1016.8 0.0
19/10:30am 18.0 16.0 8.8 55 4.8 NNW 9 17 5 9 1017.3 1017.3 0.0
19/10:00am 15.8 13.6 9.5 66 3.3 NNW 11 15 6 8 1017.5 1017.5 0.0
19/09:30am 14.7 12.7 10.3 75 2.3 NW 11 17 6 9 1017.7 1017.7 0.0
19/09:00am 12.1 10.0 9.8 86 1.2 NNW 11 15 6 8 1018.0 1018.0 0.0
19/08:30am 10.0 7.8 9.2 95 0.4 NNW 11 15 6 8 1018.0 1018.0 0.0
19/08:00am 8.9 6.9 8.8 99 0.0 NW 9 13 5 7 1018.0 1018.0 0.0
19/07:30am 7.7 5.1 7.6 99 0.0 NNW 11 13 6 7 1017.6 1017.6 0.0
19/07:00am 6.3 4.1 6.2 99 0.0 WNW 7 9 4 5 1017.6 1017.6 0.0
19/06:31am 6.1 3.9 6.0 99 0.0 WNW 7 9 4 5 1017.4 1017.4 0.0
19/06:30am 6.1 3.9 6.0 99 0.0 WNW 7 9 4 5 1017.4 1017.4 0.0
19/06:15am 5.7 3.0 5.6 99 0.0 NW 9 11 5 6 1017.3 1017.3 0.0
19/06:00am 5.9 3.2 5.8 99 0.0 NW 9 11 5 6 1017.3 1017.3 0.0
19/05:35am 5.4 2.6 5.3 99 0.0 WNW 9 11 5 6 1017.3 1017.3 0.0
19/05:30am 4.6 1.6 4.3 98 0.1 NW 9 11 5 6 1017.2 1017.2 0.0
19/05:22am 4.7 2.3 4.4 98 0.1 NNW 6 9 3 5 1017.2 1017.2 0.0
19/05:17am 4.9 3.3 4.6 98 0.1 NNW 2 7 1 4 1017.2 1017.2 0.0
19/05:00am 5.6 4.5 5.3 98 0.1 CALM 0 0 0 0 1017.1 1017.1 0.0
19/04:58am 5.6 4.5 5.3 98 0.1 CALM 0 0 0 0 1017.1 1017.1 0.0
19/04:30am 5.6 3.2 5.3 98 0.1 NNW 7 9 4 5 1017.0 1017.0 0.0
19/04:00am 6.2 4.1 5.8 97 0.2 NNW 6 9 3 5 1017.0 1017.0 0.0
19/03:30am 7.9 6.1 7.8 99 0.0 NW 7 9 4 5 1017.1 1017.1 0.0
19/03:00am 7.1 5.0 6.8 98 0.1 WNW 7 9 4 5 1017.4 1017.4 0.0
19/02:30am 6.7 4.5 6.4 98 0.1 NW 7 9 4 5 1017.7 1017.7 0.0
19/02:00am 7.1 5.2 6.7 97 0.2 NNW 6 7 3 4 1018.0 1018.0 0.0
19/01:30am 7.6 6.2 7.2 97 0.2 NNW 4 9 2 5 1018.4 1018.4 0.0
19/01:00am 7.3 4.8 6.7 96 0.3 NW 9 11 5 6 1018.5 1018.5 0.0
19/12:30am 7.5 4.7 6.8 95 0.3 NNW 11 11 6 6 1018.7 1018.7 0.0
19/12:00am 7.7 5.6 6.5 92 0.5 NW 7 9 4 5 1018.9 1018.9 0.0
 
Date/Time
EST
Temp
°C
App
Temp
°C
Dew
Point
°C
Rel
Hum
%
Delta-T
°C
Wind Press
QNH
hPa
Press
MSL
hPa
Rain since
9am
mm
Dir  Spd
km/h
Gust
km/h
Spd
kts
Gust
kts
18/11:30pm 9.0 7.3 7.5 90 0.7 WNW 6 7 3 4 1019.2 1019.2 0.0
18/11:00pm 8.9 6.9 7.2 89 0.8 WNW 7 11 4 6 1019.4 1019.4 0.0
18/10:30pm 10.0 7.9 8.4 90 0.8 WNW 9 11 5 6 1019.5 1019.5 0.0
18/10:00pm 9.3 7.2 8.1 92 0.6 NW 9 11 5 6 1019.7 1019.7 0.0
18/09:30pm 9.8 7.7 8.4 91 0.7 NW 9 13 5 7 1019.8 1019.8 0.0
18/09:00pm 10.0 8.2 8.1 88 0.9 NW 7 9 4 5 1019.7 1019.7 0.0
18/08:30pm 10.4 8.2 8.0 85 1.2 NW 9 11 5 6 1019.6 1019.6 0.0
18/08:00pm 12.1 10.5 8.9 81 1.6 WNW 7 9 4 5 1019.6 1019.6 0.0
18/07:30pm 13.5 11.6 9.2 75 2.2 W 9 13 5 7 1019.7 1019.7 0.0
18/07:16pm 14.1 11.8 9.1 72 2.5 W 11 15 6 8 1019.7 1019.7 0.0
18/07:01pm 14.4 12.2 9.4 72 2.6 W 11 17 6 9 1019.8 1019.8 0.0
18/07:00pm 14.5 12.3 9.5 72 2.6 W 11 17 6 9 1019.8 1019.8 0.0
18/06:30pm 14.7 11.7 9.3 70 2.8 WSW 15 19 8 10 1019.6 1019.6 0.0
18/06:00pm 14.8 11.8 9.2 69 2.9 WSW 15 17 8 9 1019.2 1019.2 0.0
18/05:30pm 15.7 12.3 9.1 65 3.4 WSW 17 20 9 11 1019.1 1019.1 0.0
18/05:00pm 17.3 14.4 9.7 61 4.0 SW 15 20 8 11 1019.0 1019.0 0.0
18/04:30pm 18.1 14.6 10.2 60 4.2 SW 19 24 10 13 1019.0 1019.0 0.0
18/04:00pm 18.4 13.8 9.7 57 4.6 SW 24 32 13 17 1019.0 1019.0 0.0
18/03:30pm 19.4 14.9 9.9 54 5.1 SW 24 33 13 18 1019.1 1019.1 0.0
18/03:00pm 18.3 14.1 9.9 58 4.5 SW 22 30 12 16 1019.3 1019.3 0.0
18/02:30pm 20.3 17.1 9.8 51 5.6 SW 17 32 9 17 1019.2 1019.2 0.0
18/02:00pm 18.8 16.1 9.0 53 5.1 W 13 17 7 9 1019.4 1019.4 0.0
18/01:30pm 18.5 15.0 8.7 53 5.1 WSW 17 24 9 13 1019.7 1019.7 0.0
18/01:00pm 18.8 15.2 8.5 51 5.3 W 17 20 9 11 1020.2 1020.2 0.0
18/12:30pm 18.6 15.0 8.3 51 5.3 WSW 17 24 9 13 1020.7 1020.7 0.0
18/12:00pm 18.5 15.2 7.9 50 5.4 WNW 15 26 8 14 1021.0 1021.0 0.0
18/11:30am 18.4 14.7 8.1 51 5.3 WNW 17 28 9 15 1021.3 1021.3 0.0
18/11:00am 17.4 13.3 7.7 53 4.9 W 19 28 10 15 1021.6 1021.6 0.0
18/10:30am 17.0 13.5 7.1 52 4.9 WNW 15 20 8 11 1021.8 1021.8 0.0
18/10:00am 16.2 13.1 7.4 56 4.4 WNW 13 19 7 10 1022.0 1022.0 0.0
18/09:30am 15.8 12.5 8.1 60 3.9 WNW 15 19 8 10 1022.3 1022.3 0.0
18/09:00am 14.3 10.9 7.6 64 3.3 WNW 15 20 8 11 1022.5 1022.5 0.0
18/08:30am 13.5 10.5 7.7 68 2.9 WNW 13 17 7 9 1022.5 1022.5 0.0
18/08:00am 12.9 10.3 7.6 70 2.6 WNW 11 15 6 8 1022.4 1022.4 0.0
18/07:30am 12.5 10.1 7.2 70 2.6 WNW 9 11 5 6 1022.3 1022.3 0.0
18/07:00am 11.8 9.9 7.5 75 2.1 SW 7 9 4 5 1022.0 1022.0 0.0
18/06:30am 12.1 8.9 6.8 70 2.5 WNW 13 17 7 9 1021.9 1021.9 0.0
18/06:00am 11.9 9.1 6.8 71 2.4 WNW 11 13 6 7 1021.8 1021.8 0.0
18/05:30am 11.8 8.6 6.9 72 2.3 NW 13 17 7 9 1021.8 1021.8 0.0
18/05:00am 11.7 9.3 6.8 72 2.3 WNW 9 13 5 7 1021.8 1021.8 0.0
18/04:30am 11.8 8.6 6.7 71 2.4 NW 13 17 7 9 1021.7 1021.7 0.0
18/04:00am 11.8 8.6 6.7 71 2.4 NW 13 17 7 9 1021.6 1021.6 0.0
18/03:30am 11.8 9.3 6.5 70 2.5 NW 9 13 5 7 1021.5 1021.5 0.0
18/03:00am 12.0 8.7 6.5 69 2.6 NW 13 17 7 9 1021.7 1021.7 0.0
18/02:30am 11.8 8.5 6.3 69 2.6 WNW 13 17 7 9 1022.0 1022.0 0.0
18/02:00am 11.8 8.1 6.3 69 2.6 NW 15 19 8 10 1022.3 1022.3 0.0
18/01:30am 11.6 8.3 6.3 70 2.5 NW 13 17 7 9 1022.6 1022.6 0.0
18/01:00am 11.4 7.7 6.3 71 2.4 NW 15 19 8 10 1022.7 1022.7 0.0
18/12:30am 11.2 7.8 6.1 71 2.4 NW 13 17 7 9 1022.9 1022.9 0.0
18/12:00am 11.2 7.8 5.9 70 2.5 NW 13 17 7 9 1023.1 1023.1 0.0
 
Date/Time
EST
Temp
°C
App
Temp
°C
Dew
Point
°C
Rel
Hum
%
Delta-T
°C
Wind Press
QNH
hPa
Press
MSL
hPa
Rain since
9am
mm
Dir  Spd
km/h
Gust
km/h
Spd
kts
Gust
kts
17/11:30pm 10.6 7.2 6.0 73 2.1 WNW 13 17 7 9 1023.4 1023.4 0.0
17/11:00pm 10.4 7.0 6.0 74 2.0 NW 13 17 7 9 1023.5 1023.5 0.0
17/10:30pm 10.0 6.2 6.0 76 1.8 NW 15 19 8 10 1023.8 1023.8 0.0
17/10:00pm 10.3 6.9 6.1 75 1.9 WNW 13 17 7 9 1024.3 1024.3 0.0
17/09:30pm 10.9 7.9 6.1 72 2.2 NW 11 15 6 8 1024.2 1024.2 0.0
17/09:00pm 11.8 8.9 6.3 69 2.6 NW 11 13 6 7 1024.2 1024.2 0.0
17/08:30pm 12.0 8.7 6.5 69 2.6 NW 13 17 7 9 1024.2 1024.2 0.0
17/08:00pm 11.9 9.0 6.6 70 2.5 NW 11 13 6 7 1024.2 1024.2 0.0
17/07:30pm 12.1 9.2 6.6 69 2.6 NW 11 15 6 8 1024.1 1024.1 0.0
17/07:00pm 10.9 8.3 6.1 72 2.2 NW 9 11 5 6 1024.1 1024.1 0.0
17/06:30pm 10.9 8.1 5.0 67 2.7 NW 9 13 5 7 1023.9 1023.9 0.0
17/06:00pm 12.7 10.0 5.6 62 3.3 W 9 15 5 8 1023.6 1023.6 0.0
17/05:30pm 14.1 11.5 6.2 59 3.8 WNW 9 13 5 7 1023.5 1023.5 0.0

Other formats

Comma delimited format used in spreadsheet applications
http://www.bom.gov.au/fwo/IDV60801/IDV60801.94912.axf

JavaScript Object Notation format (JSON) in row-major order
http://www.bom.gov.au/fwo/IDV60801/IDV60801.94912.json

Data quality

Most of these data are generated automatically and are frequently updated. Quality checks on data are not normally performed. It is possible for incorrect values to appear. Refer to information at About Latest Weather Observations and please check the disclaimer before using these data.